createdAt,value
2019-05-21T00:00:38.203Z,98461.95
2019-05-21T00:03:10.541Z,98462.73
2019-05-21T00:05:42.989Z,98466.59
2019-05-21T00:08:15.476Z,98463.84
2019-05-21T00:10:48.033Z,98469.50
2019-05-21T00:13:20.376Z,98469.66
2019-05-21T00:15:52.850Z,98468.05
2019-05-21T00:18:25.259Z,98471.72
2019-05-21T00:20:57.740Z,98466.58
2019-05-21T00:23:30.123Z,98469.31
2019-05-21T00:26:02.654Z,98468.51
2019-05-21T00:28:39.789Z,98467.38
2019-05-21T00:32:06.248Z,98469.49
2019-05-21T00:35:49.116Z,98471.98
2019-05-21T00:39:15.699Z,98474.80
2019-05-21T00:42:03.194Z,98473.30
2019-05-21T00:44:39.385Z,98467.69
2019-05-21T00:47:12.651Z,98467.70
2019-05-21T00:49:45.068Z,98464.64
2019-05-21T00:52:17.510Z,98466.61
2019-05-21T00:54:50.027Z,98470.77
2019-05-21T00:57:22.499Z,98468.39
2019-05-21T00:59:54.914Z,98470.82
2019-05-21T01:02:27.349Z,98466.16
2019-05-21T01:05:01.446Z,98464.57
2019-05-21T01:07:33.972Z,98463.09
2019-05-21T01:10:06.653Z,98461.02
2019-05-21T01:12:39.098Z,98462.47
2019-05-21T01:15:11.589Z,98457.34
2019-05-21T01:17:44.017Z,98458.28
2019-05-21T01:20:16.476Z,98461.34
2019-05-21T01:22:48.899Z,98460.53
2019-05-21T01:25:21.303Z,98461.84
2019-05-21T01:27:53.737Z,98467.77
2019-05-21T01:30:26.151Z,98463.94
2019-05-21T01:32:58.580Z,98459.73
2019-05-21T01:35:30.988Z,98467.77
2019-05-21T01:38:03.428Z,98465.70
2019-05-21T01:40:35.830Z,98467.77
2019-05-21T01:43:08.262Z,98467.61
2019-05-21T01:45:40.680Z,98470.84
2019-05-21T01:48:13.103Z,98464.41
2019-05-21T01:50:45.448Z,98465.22
2019-05-21T01:53:17.868Z,98464.41
2019-05-21T01:55:51.348Z,98464.09
2019-05-21T01:58:23.867Z,98469.06
2019-05-21T02:00:56.288Z,98470.03
2019-05-21T02:03:28.715Z,98466.16
2019-05-21T02:06:01.136Z,98466.50
2019-05-21T02:08:34.533Z,98464.88
2019-05-21T02:11:06.938Z,98463.77
2019-05-21T02:13:39.364Z,98461.18
2019-05-21T02:16:11.775Z,98460.86
2019-05-21T02:18:44.205Z,98464.41
2019-05-21T02:21:16.637Z,98461.67
2019-05-21T02:23:49.077Z,98453.96
2019-05-21T02:26:21.494Z,98457.02
2019-05-21T02:28:53.850Z,98456.05
2019-05-21T02:31:26.364Z,98451.55
2019-05-21T02:33:58.730Z,98457.66
2019-05-21T02:36:31.155Z,98457.48
2019-05-21T02:39:05.692Z,98460.20
2019-05-21T02:41:38.116Z,98459.57
2019-05-21T02:44:10.541Z,98458.45
2019-05-21T02:46:42.944Z,98457.47
2019-05-21T02:49:16.437Z,98453.90
2019-05-21T02:51:48.850Z,98457.91
2019-05-21T02:54:37.543Z,98453.27
2019-05-21T02:56:55.393Z,98454.54
2019-05-21T02:59:27.825Z,98453.75
2019-05-21T03:02:18.288Z,98442.83
2019-05-21T03:04:50.770Z,98444.73
2019-05-21T03:07:25.529Z,98443.89
2019-05-21T03:09:57.319Z,98445.03
2019-05-21T03:12:29.735Z,98445.50
2019-05-21T03:15:02.181Z,98443.89
2019-05-21T03:17:34.595Z,98444.86
2019-05-21T03:20:07.131Z,98446.13
2019-05-21T03:22:39.568Z,98453.69
2019-05-21T03:25:12.312Z,98453.51
2019-05-21T03:27:44.715Z,98454.81
2019-05-21T03:30:17.189Z,98461.24
2019-05-21T03:32:49.646Z,98465.58
2019-05-21T03:35:22.072Z,98457.54
2019-05-21T03:37:54.491Z,98462.50
2019-05-21T03:40:26.929Z,98458.16
2019-05-21T03:42:59.335Z,98462.34
2019-05-21T03:45:31.771Z,98458.79
2019-05-21T03:48:04.186Z,98469.39
2019-05-21T03:50:36.559Z,98470.02
2019-05-21T03:53:08.982Z,98469.70
2019-05-21T03:55:41.461Z,98470.95
2019-05-21T03:58:14.942Z,98473.71
2019-05-21T04:00:47.462Z,98470.30
2019-05-21T04:03:19.903Z,98469.84
2019-05-21T04:05:52.315Z,98469.03
2019-05-21T04:08:24.756Z,98471.93
2019-05-21T04:10:57.130Z,98473.70
2019-05-21T04:13:29.612Z,98462.77
2019-05-21T04:16:19.829Z,98457.78
2019-05-21T04:19:14.266Z,98443.45
2019-05-21T04:21:46.698Z,98440.56
2019-05-21T04:24:19.454Z,98435.56
2019-05-21T04:26:51.915Z,98443.11
2019-05-21T04:29:24.321Z,98462.07
2019-05-21T04:31:56.755Z,98464.75
2019-05-21T04:34:29.185Z,98477.64
2019-05-21T04:37:11.018Z,98490.34
2019-05-21T04:39:35.710Z,98474.45
2019-05-21T04:42:08.261Z,98456.77
2019-05-21T04:44:40.656Z,98464.95
2019-05-21T04:47:13.004Z,98471.88
2019-05-21T04:49:45.415Z,98477.34
2019-05-21T04:52:17.830Z,98474.91
2019-05-21T04:54:50.232Z,98470.92
2019-05-21T04:57:22.663Z,98470.05
2019-05-21T04:59:55.059Z,98472.98
2019-05-21T05:02:27.485Z,98474.45
2019-05-21T05:04:59.893Z,98470.70
2019-05-21T05:07:32.316Z,98479.42
2019-05-21T05:10:05.298Z,98479.28
2019-05-21T05:12:37.648Z,98467.16
2019-05-21T05:17:30.912Z,98473.09
2019-05-21T05:20:03.365Z,98483.55
2019-05-21T05:22:35.783Z,98482.41
2019-05-21T05:25:09.276Z,98488.90
2019-05-21T05:27:52.044Z,98499.34
2019-05-21T05:30:27.788Z,98496.94
2019-05-21T05:33:00.202Z,98501.53
2019-05-21T05:35:32.620Z,98499.34
2019-05-21T05:38:05.025Z,98504.75
2019-05-21T05:40:37.482Z,98498.38
2019-05-21T05:43:10.933Z,98502.72
2019-05-21T05:45:43.352Z,98494.79
2019-05-21T05:48:16.369Z,98497.69
2019-05-21T05:50:51.546Z,98492.04
2019-05-21T05:53:24.322Z,98491.08
2019-05-21T05:55:56.750Z,98497.36
2019-05-21T05:58:29.182Z,98482.23
2019-05-21T06:01:01.652Z,98485.63
2019-05-21T06:03:34.224Z,98481.12
2019-05-21T06:06:06.625Z,98477.26
2019-05-21T06:08:39.048Z,98466.31
2019-05-21T06:11:11.518Z,98459.58
2019-05-21T06:13:43.949Z,98447.98
2019-05-21T06:16:16.358Z,98450.08
2019-05-21T06:18:48.803Z,98449.27
2019-05-21T06:21:21.221Z,98443.49
2019-05-21T06:23:53.687Z,98444.14
2019-05-21T06:26:26.111Z,98440.61
2019-05-21T06:28:58.598Z,98443.33
2019-05-21T06:31:33.756Z,98456.36
2019-05-21T06:34:06.497Z,98458.77
2019-05-21T06:36:38.915Z,98470.17
2019-05-21T06:39:11.328Z,98461.00
2019-05-21T06:41:43.768Z,98461.17
2019-05-21T06:44:18.329Z,98484.61
2019-05-21T06:46:50.730Z,98472.55
2019-05-21T06:49:23.159Z,98482.00
2019-05-21T06:51:55.558Z,98490.36
2019-05-21T06:54:27.971Z,98489.55
2019-05-21T06:57:00.397Z,98499.52
2019-05-21T06:59:32.812Z,98509.48
2019-05-21T07:02:05.223Z,98512.39
2019-05-21T07:04:40.693Z,98513.65
2019-05-21T07:07:13.100Z,98519.44
2019-05-21T07:09:46.602Z,98521.02
2019-05-21T07:12:18.995Z,98526.83
2019-05-21T07:14:51.416Z,98527.02
2019-05-21T07:17:23.819Z,98540.16
2019-05-21T07:19:56.273Z,98549.50
2019-05-21T07:22:28.730Z,98543.09
2019-05-21T07:25:02.125Z,98546.78
2019-05-21T07:27:34.600Z,98546.61
2019-05-21T07:30:08.677Z,98549.31
2019-05-21T07:32:41.281Z,98550.30
2019-05-21T07:35:13.718Z,98551.56
2019-05-21T07:37:46.129Z,98552.06
2019-05-21T07:40:19.259Z,98554.95
2019-05-21T07:42:51.653Z,98551.23
2019-05-21T07:45:24.090Z,98559.77
2019-05-21T07:47:56.502Z,98554.95
2019-05-21T07:50:28.926Z,98552.36
2019-05-21T07:53:01.324Z,98556.08
2019-05-21T07:55:33.675Z,98562.22
2019-05-21T07:58:06.075Z,98567.34
2019-05-21T08:00:38.503Z,98563.16
2019-05-21T08:03:10.902Z,98565.25
2019-05-21T08:05:43.326Z,98563.97
2019-05-21T08:08:15.720Z,98567.47
2019-05-21T08:10:48.139Z,98579.39
2019-05-21T08:13:20.485Z,98583.69
2019-05-21T08:15:52.924Z,98584.83
2019-05-21T08:18:25.363Z,98591.75
2019-05-21T08:20:57.842Z,98591.28
2019-05-21T08:23:30.237Z,98594.48
2019-05-21T08:26:02.686Z,98604.30
2019-05-21T08:28:35.091Z,98605.41
2019-05-21T08:31:07.515Z,98601.86
2019-05-21T08:33:39.968Z,98616.02
2019-05-21T08:36:12.393Z,98622.77
2019-05-21T08:38:44.718Z,98624.39
2019-05-21T08:41:17.144Z,98634.36
2019-05-21T08:43:49.556Z,98636.59
2019-05-21T08:46:21.977Z,98633.39
2019-05-21T08:48:54.376Z,98641.09
2019-05-21T08:51:26.806Z,98642.88
2019-05-21T08:53:59.265Z,98647.36
2019-05-21T08:56:31.696Z,98654.44
2019-05-21T08:59:04.111Z,98660.86
2019-05-21T09:01:36.457Z,98662.49
2019-05-21T09:04:08.852Z,98668.41
2019-05-21T09:06:41.275Z,98673.88
2019-05-21T09:09:13.681Z,98671.14
2019-05-21T09:11:46.117Z,98666.32
2019-05-21T09:14:18.506Z,98675.66
2019-05-21T09:16:50.934Z,98677.89
2019-05-21T09:19:23.365Z,98687.88
2019-05-21T09:21:55.815Z,98687.85
2019-05-21T09:24:28.222Z,98689.61
2019-05-21T09:27:00.655Z,98687.51
2019-05-21T09:29:33.059Z,98689.76
2019-05-21T09:32:05.415Z,98698.13
2019-05-21T09:34:48.154Z,98708.22
2019-05-21T09:37:19.706Z,98700.34
2019-05-21T09:39:45.997Z,98715.45
2019-05-21T09:42:18.450Z,98696.14
2019-05-21T09:44:50.894Z,98713.55
2019-05-21T09:47:23.364Z,98707.56
2019-05-21T09:49:55.855Z,98707.86
2019-05-21T09:52:28.306Z,98709.95
2019-05-21T09:55:00.785Z,98714.61
2019-05-21T09:57:39.293Z,98720.30
2019-05-21T10:00:30.049Z,98724.61
2019-05-21T10:03:04.558Z,98729.38
2019-05-21T10:05:36.957Z,98723.79
2019-05-21T10:08:09.455Z,98726.06
2019-05-21T10:10:41.854Z,98732.98
2019-05-21T10:13:14.303Z,98731.05
2019-05-21T10:15:46.801Z,98739.75
2019-05-21T10:18:19.322Z,98739.27
2019-05-21T10:20:51.744Z,98744.56
2019-05-21T10:23:24.159Z,98746.99
2019-05-21T10:25:56.651Z,98746.36
2019-05-21T10:28:29.074Z,98756.97
2019-05-21T10:31:01.472Z,98757.95
2019-05-21T10:33:34.855Z,98764.85
2019-05-21T10:36:07.353Z,98761.75
2019-05-21T10:38:39.785Z,98765.94
2019-05-21T10:41:12.213Z,98771.42
2019-05-21T10:43:44.626Z,98764.19
2019-05-21T10:46:17.043Z,98766.46
2019-05-21T10:48:49.569Z,98764.00
2019-05-21T10:51:22.066Z,98775.14
2019-05-21T10:53:54.485Z,98767.27
2019-05-21T10:56:26.916Z,98773.68
2019-05-21T10:58:59.381Z,98784.14
2019-05-21T11:01:46.111Z,98784.94
2019-05-21T11:04:41.655Z,98785.58
2019-05-21T11:07:15.471Z,98795.48
2019-05-21T11:09:47.897Z,98798.89
2019-05-21T11:12:20.320Z,98808.69
2019-05-21T11:14:52.726Z,98815.58
2019-05-21T11:17:25.135Z,98816.06
2019-05-21T11:19:57.673Z,98827.63
2019-05-21T11:22:30.098Z,98821.83
2019-05-21T11:25:02.523Z,98827.14
2019-05-21T11:27:34.982Z,98826.31
2019-05-21T11:30:07.813Z,98831.45
2019-05-21T11:32:40.405Z,98836.47
2019-05-21T11:35:12.943Z,98832.12
2019-05-21T11:37:47.862Z,98838.55
2019-05-21T11:40:19.617Z,98845.46
2019-05-21T11:42:53.119Z,98849.17
2019-05-21T11:45:32.100Z,98851.77
2019-05-21T11:48:01.007Z,98856.55
2019-05-21T11:50:33.435Z,98859.59
2019-05-21T11:53:05.831Z,98864.61
2019-05-21T11:55:38.257Z,98863.45
2019-05-21T11:58:10.765Z,98863.94
2019-05-21T12:00:43.182Z,98866.18
2019-05-21T12:03:15.646Z,98866.05
2019-05-21T12:05:48.080Z,98867.81
2019-05-21T12:08:20.468Z,98875.20
2019-05-21T12:10:52.885Z,98872.30
2019-05-21T12:13:25.374Z,98877.62
2019-05-21T12:15:57.813Z,98882.41
2019-05-21T12:18:30.206Z,98882.73
2019-05-21T12:21:02.650Z,98882.06
2019-05-21T12:23:35.169Z,98886.61
2019-05-21T12:26:07.573Z,98890.93
2019-05-21T12:28:39.982Z,98899.42
2019-05-21T12:31:12.405Z,98900.71
2019-05-21T12:33:44.807Z,98904.56
2019-05-21T12:36:17.230Z,98908.73
2019-05-21T12:38:49.622Z,98909.06
2019-05-21T12:41:22.052Z,98909.38
2019-05-21T12:43:54.453Z,98917.25
2019-05-21T12:46:26.875Z,98918.70
2019-05-21T12:48:59.298Z,98924.32
2019-05-21T12:51:31.737Z,98921.77
2019-05-21T12:54:04.157Z,98918.91
2019-05-21T12:56:40.449Z,98919.41
2019-05-21T12:59:10.661Z,98930.18
2019-05-21T13:01:43.286Z,98930.80
2019-05-21T13:04:15.686Z,98935.64
2019-05-21T13:06:48.110Z,98931.25
2019-05-21T13:09:32.258Z,98937.87
2019-05-21T13:11:54.663Z,98942.37
2019-05-21T13:14:27.127Z,98947.80
2019-05-21T13:17:00.575Z,98947.48
2019-05-21T13:19:33.034Z,98958.91
2019-05-21T13:22:05.520Z,98959.38
2019-05-21T13:24:37.906Z,98961.94
2019-05-21T13:27:10.323Z,98962.58
2019-05-21T13:29:42.827Z,98964.02
2019-05-21T13:32:15.333Z,98966.91
2019-05-21T13:34:47.840Z,98977.19
2019-05-21T13:37:20.261Z,98982.63
2019-05-21T13:39:53.833Z,98979.70
2019-05-21T13:42:26.258Z,98986.75
2019-05-21T13:44:58.651Z,98992.51
2019-05-21T13:47:31.129Z,98995.08
2019-05-21T13:50:03.746Z,98998.75
2019-05-21T13:52:46.475Z,99001.48
2019-05-21T13:55:18.940Z,98996.16
2019-05-21T13:57:51.421Z,99005.63
2019-05-21T14:00:28.633Z,98999.05
2019-05-21T14:03:01.326Z,99008.39
2019-05-21T14:05:33.737Z,99008.98
2019-05-21T14:08:06.417Z,99001.73
2019-05-21T14:10:39.041Z,99012.03
2019-05-21T14:13:11.573Z,99010.08
2019-05-21T14:15:44.035Z,99014.42
2019-05-21T14:18:16.523Z,99014.58
2019-05-21T14:20:48.934Z,99014.26
2019-05-21T14:23:21.484Z,99014.12
2019-05-21T14:25:53.897Z,99018.12
2019-05-21T14:28:26.351Z,99026.14
2019-05-21T14:30:58.749Z,99029.33
2019-05-21T14:33:31.221Z,99031.93
2019-05-21T14:36:03.691Z,99038.81
2019-05-21T14:38:36.140Z,99037.84
2019-05-21T14:41:08.608Z,99042.67
2019-05-21T14:43:41.039Z,99043.28
2019-05-21T14:46:13.442Z,99052.44
2019-05-21T14:48:45.879Z,99050.99
2019-05-21T14:51:18.412Z,99055.01
2019-05-21T14:53:53.706Z,99046.02
2019-05-21T14:56:26.193Z,99054.66
2019-05-21T14:58:58.656Z,99055.95
2019-05-21T15:01:31.042Z,99057.23
2019-05-21T15:04:03.625Z,99059.14
2019-05-21T15:06:36.143Z,99059.08
2019-05-21T15:09:08.724Z,99066.52
2019-05-21T15:11:41.396Z,99060.50
2019-05-21T15:14:13.810Z,99070.30
2019-05-21T15:16:46.229Z,99063.23
2019-05-21T15:19:18.732Z,99066.95
2019-05-21T15:21:53.827Z,99073.19
2019-05-21T15:24:26.251Z,99073.16
2019-05-21T15:26:58.665Z,99069.78
2019-05-21T15:29:31.085Z,99070.27
2019-05-21T15:32:03.498Z,99071.69
2019-05-21T15:34:35.984Z,99074.39
2019-05-21T15:37:08.397Z,99076.00
2019-05-21T15:39:42.474Z,99080.14
2019-05-21T15:42:14.871Z,99082.08
2019-05-21T15:44:47.369Z,99080.63
2019-05-21T15:47:19.877Z,99089.01
2019-05-21T15:49:52.364Z,99084.81
2019-05-21T15:52:24.768Z,99090.75
2019-05-21T15:54:57.194Z,99093.47
2019-05-21T15:57:29.612Z,99093.16
2019-05-21T16:00:02.039Z,99109.03
2019-05-21T16:02:34.814Z,99111.73
2019-05-21T16:05:07.288Z,99115.45
2019-05-21T16:07:39.696Z,99120.30
2019-05-21T16:10:12.127Z,99118.16
2019-05-21T16:12:44.580Z,99116.09
2019-05-21T16:15:17.049Z,99118.02
2019-05-21T16:17:49.456Z,99123.94
2019-05-21T16:20:21.879Z,99114.95
2019-05-21T16:22:54.299Z,99114.94
2019-05-21T16:25:26.882Z,99119.28
2019-05-21T16:27:59.298Z,99120.88
2019-05-21T16:30:31.729Z,99124.42
2019-05-21T16:33:04.129Z,99122.97
2019-05-21T16:35:36.553Z,99126.53
2019-05-21T16:38:09.028Z,99127.66
2019-05-21T16:40:41.474Z,99124.92
2019-05-21T16:43:13.868Z,99127.82
2019-05-21T16:45:46.295Z,99123.99
2019-05-21T16:48:18.688Z,99127.69
2019-05-21T16:50:51.103Z,99129.13
2019-05-21T16:53:23.506Z,99130.09
2019-05-21T16:55:56.257Z,99132.51
2019-05-21T16:58:28.662Z,99136.20
2019-05-21T17:01:01.617Z,99143.27
2019-05-21T17:03:36.533Z,99145.48
2019-05-21T17:06:08.759Z,99150.52
2019-05-21T17:08:41.266Z,99148.67
2019-05-21T17:11:13.784Z,99146.74
2019-05-21T17:13:48.310Z,99155.28
2019-05-21T17:16:20.749Z,99159.43
2019-05-21T17:18:53.283Z,99163.50
2019-05-21T17:21:26.148Z,99158.17
2019-05-21T17:23:58.914Z,99163.95
2019-05-21T17:26:32.058Z,99160.27
2019-05-21T17:29:04.513Z,99171.86
2019-05-21T17:31:37.968Z,99171.03
2019-05-21T17:34:10.374Z,99170.03
2019-05-21T17:36:44.357Z,99167.78
2019-05-21T17:39:17.796Z,99180.31
2019-05-21T17:41:50.474Z,99177.39
2019-05-21T17:44:24.966Z,99175.46
2019-05-21T17:46:57.180Z,99174.66
2019-05-21T17:49:29.622Z,99175.08
2019-05-21T17:52:02.134Z,99171.55
2019-05-21T17:54:35.158Z,99179.00
2019-05-21T17:57:08.088Z,99185.74
2019-05-21T17:59:41.316Z,99183.59
2019-05-21T18:02:15.659Z,99186.48
2019-05-21T18:04:50.607Z,99189.70
2019-05-21T18:07:23.926Z,99198.69
2019-05-21T18:09:56.527Z,99204.77
2019-05-21T18:12:31.955Z,99205.05
2019-05-21T18:15:03.350Z,99211.31
2019-05-21T18:17:38.445Z,99215.66
2019-05-21T18:20:12.724Z,99214.84
2019-05-21T18:22:47.988Z,99220.12
2019-05-21T18:25:20.431Z,99225.45
2019-05-21T18:27:52.895Z,99221.08
2019-05-21T18:30:25.989Z,99230.43
2019-05-21T18:32:58.827Z,99234.13
2019-05-21T18:35:31.526Z,99237.78
2019-05-21T18:38:04.111Z,99235.53
2019-05-21T18:40:36.785Z,99245.45
2019-05-21T18:43:09.342Z,99249.63
2019-05-21T18:45:41.812Z,99255.41
2019-05-21T18:48:14.283Z,99256.83
2019-05-21T18:50:46.766Z,99256.83
2019-05-21T18:53:19.369Z,99265.38
2019-05-21T18:55:51.816Z,99266.14
2019-05-21T18:58:24.259Z,99271.13
2019-05-21T19:00:56.775Z,99274.33
2019-05-21T19:03:29.208Z,99282.23
2019-05-21T19:06:01.690Z,99286.53
2019-05-21T19:08:34.192Z,99291.36
2019-05-21T19:11:06.745Z,99296.97
2019-05-21T19:13:39.172Z,99307.54
2019-05-21T19:16:11.622Z,99305.30
2019-05-21T19:18:45.197Z,99301.44
2019-05-21T19:21:18.732Z,99310.11
2019-05-21T19:23:51.364Z,99315.73
2019-05-21T19:26:23.804Z,99323.80
2019-05-21T19:28:56.233Z,99325.56
2019-05-21T19:31:28.726Z,99333.11
2019-05-21T19:34:01.170Z,99331.79
2019-05-21T19:36:33.585Z,99338.70
2019-05-21T19:39:07.683Z,99350.94
2019-05-21T19:41:40.162Z,99346.56
2019-05-21T19:44:12.568Z,99353.34
2019-05-21T19:46:45.015Z,99349.97
2019-05-21T19:49:17.692Z,99353.18
2019-05-21T19:51:50.119Z,99354.63
2019-05-21T19:54:22.655Z,99353.02
2019-05-21T19:56:55.257Z,99355.75
2019-05-21T19:59:27.895Z,99350.61
2019-05-21T20:02:00.325Z,99352.67
2019-05-21T20:04:32.849Z,99353.98
2019-05-21T20:07:07.679Z,99356.48
2019-05-21T20:09:41.737Z,99363.72
2019-05-21T20:12:14.655Z,99357.94
2019-05-21T20:14:47.652Z,99357.45
2019-05-21T20:17:20.578Z,99365.80
2019-05-21T20:19:53.189Z,99367.08
2019-05-21T20:22:26.405Z,99364.64
2019-05-21T20:24:59.106Z,99369.33
2019-05-21T20:27:31.529Z,99365.45
2019-05-21T20:30:12.722Z,99366.89
2019-05-21T20:32:41.037Z,99363.68
2019-05-21T20:35:16.846Z,99368.50
2019-05-21T20:37:49.983Z,99363.00
2019-05-21T20:40:23.348Z,99363.03
2019-05-21T20:42:56.072Z,99365.41
2019-05-21T20:45:28.667Z,99366.53
2019-05-21T20:48:01.096Z,99363.97
2019-05-21T20:50:34.097Z,99361.52
2019-05-21T20:53:06.538Z,99362.80
2019-05-21T20:55:39.127Z,99362.97
2019-05-21T20:58:11.574Z,99357.95
2019-05-21T21:00:53.602Z,99364.73
2019-05-21T21:03:26.047Z,99365.50
2019-05-21T21:05:58.751Z,99365.70
2019-05-21T21:08:32.998Z,99362.48
2019-05-21T21:11:07.176Z,99360.05
2019-05-21T21:13:40.677Z,99365.79
2019-05-21T21:16:13.530Z,99374.50
2019-05-21T21:18:46.185Z,99369.03
2019-05-21T21:21:18.602Z,99373.69
2019-05-21T21:23:55.939Z,99372.89
2019-05-21T21:26:26.974Z,99370.28
2019-05-21T21:29:00.584Z,99372.09
2019-05-21T21:31:33.225Z,99378.03
2019-05-21T21:34:06.134Z,99377.38
2019-05-21T21:36:38.646Z,99381.11
2019-05-21T21:39:11.975Z,99384.80
2019-05-21T21:41:45.052Z,99387.02
2019-05-21T21:44:33.122Z,99387.66
2019-05-21T21:46:54.963Z,99388.46
2019-05-21T21:49:28.979Z,99388.79
2019-05-21T21:52:01.564Z,99391.59
2019-05-21T21:54:34.466Z,99393.16
2019-05-21T21:57:07.045Z,99389.81
2019-05-21T21:59:39.474Z,99392.87
2019-05-21T22:02:26.818Z,99386.09
2019-05-21T22:05:00.134Z,99395.89
2019-05-21T22:07:32.953Z,99400.70
2019-05-21T22:10:06.959Z,99403.56
2019-05-21T22:12:39.639Z,99400.51
2019-05-21T22:15:12.857Z,99402.88
2019-05-21T22:17:45.354Z,99398.42
2019-05-21T22:20:18.697Z,99403.72
2019-05-21T22:22:51.110Z,99406.00
2019-05-21T22:25:23.642Z,99402.15
2019-05-21T22:27:56.178Z,99397.97
2019-05-21T22:30:29.693Z,99399.94
2019-05-21T22:33:02.188Z,99399.77
2019-05-21T22:35:34.625Z,99405.23
2019-05-21T22:38:07.030Z,99399.77
2019-05-21T22:40:39.471Z,99407.16
2019-05-21T22:43:12.958Z,99404.75
2019-05-21T22:45:45.484Z,99405.55
2019-05-21T22:48:17.888Z,99407.68
2019-05-21T22:50:50.322Z,99410.57
2019-05-21T22:53:22.786Z,99406.08
2019-05-21T22:55:55.253Z,99404.14
2019-05-21T22:58:27.663Z,99404.79
2019-05-21T23:01:01.802Z,99409.13
2019-05-21T23:03:34.211Z,99409.28
2019-05-21T23:06:06.681Z,99404.95
2019-05-21T23:08:39.180Z,99403.62
2019-05-21T23:11:11.861Z,99397.33
2019-05-21T23:13:44.277Z,99397.37
2019-05-21T23:16:17.383Z,99403.95
2019-05-21T23:19:08.781Z,99406.97
2019-05-21T23:21:44.074Z,99403.84
2019-05-21T23:24:21.349Z,99405.64
2019-05-21T23:26:54.543Z,99407.13
2019-05-21T23:29:27.231Z,99396.81
2019-05-21T23:31:59.674Z,99398.91
2019-05-21T23:34:32.691Z,99398.23
2019-05-21T23:37:07.270Z,99396.62
2019-05-21T23:39:40.505Z,99398.90
2019-05-21T23:42:27.182Z,99403.20
2019-05-21T23:44:48.013Z,99404.33
2019-05-21T23:47:20.628Z,99402.08
2019-05-21T23:49:53.178Z,99399.95
2019-05-21T23:52:26.542Z,99401.56
2019-05-21T23:54:59.924Z,99401.40
2019-05-21T23:57:33.476Z,99399.16
